• Join FlightAware (Why Join?)
  • Login
  • US Flag 
11:26PM EST


 

Airport Tracker/Info


-or-


 

Live Flight TrackerFlight Track Log ✈ SVA1444 ✈ 27-Apr-2014 ✈ OEMA / MED - OERK / RUH

Flight Track Log - Related Links

Times and Time Zones

All times are in EDT time to prevent confusion due to time zone crossing. See the SVA1444 flight status page for this flight to view local times or setup timezone preferences in your user account.

Time Position Orientation Groundspeed Altitude Reporting Facility
EDT Latitude Longitude Course Direction KTS MPH feet Rate Location/Type
11:07AM 24.5995 40.2858 85° East  Level Estimated
11:08AM 24.6084 40.4020 85° East  Level Estimated
11:09AM 24.6173 40.5182 85° East  Level Estimated
11:10AM 24.6260 40.6344 85° East  Level Estimated
11:11AM 24.6347 40.7507 85° East  Level Estimated
11:12AM 24.6433 40.8669 85° East  Level Estimated
11:13AM 24.6518 40.9832 85° East  Level Estimated
11:14AM 24.6602 41.0995 85° East  Level Estimated
11:15AM 24.6685 41.2158 85° East  Level Estimated
11:16AM 24.6767 41.3321 86° East  Level Estimated
11:17AM 24.6849 41.4485 86° East  Level Estimated
11:18AM 24.6929 41.5648 86° East  Level Estimated
11:19AM 24.7008 41.6812 86° East  Level Estimated
11:20AM 24.7087 41.7976 86° East  Level Estimated
11:21AM 24.7165 41.9140 86° East  Level Estimated
11:22AM 24.7242 42.0304 86° East  Level Estimated
11:23AM 24.7318 42.1468 86° East  Level Estimated
11:24AM 24.7393 42.2632 86° East  Level Estimated
11:25AM 24.7467 42.3797 86° East  Level Estimated
11:26AM 24.7540 42.4962 86° East  Level Estimated
11:27AM 24.7613 42.6126 86° East  Level Estimated
11:28AM 24.7684 42.7291 86° East  Level Estimated
11:29AM 24.7755 42.8456 86° East  Level Estimated
11:30AM 24.7824 42.9622 86° East  Level Estimated
11:31AM 24.7893 43.0787 86° East  Level Estimated
11:32AM 24.7961 43.1953 86° East  Level Estimated
11:33AM 24.8028 43.3118 86° East  Level Estimated
11:34AM 24.8094 43.4284 86° East  Level Estimated
11:35AM 24.8159 43.5450 86° East  Level Estimated
11:36AM 24.8223 43.6616 87° East  Level Estimated
11:37AM 24.8287 43.7782 87° East  Level Estimated
11:38AM 24.8349 43.8948 87° East  Level Estimated
11:39AM 24.8411 44.0114 87° East  Level Estimated
11:40AM 24.8471 44.1281 87° East  Level Estimated
11:41AM 24.8531 44.2447 87° East  Level Estimated
11:42AM 24.8590 44.3614 87° East  Level Estimated
11:43AM 24.8648 44.4781 87° East  Level Estimated
11:44AM 24.8705 44.5948 87° East  Level Estimated
11:45AM 24.8761 44.7115 87° East  Level Estimated
11:46AM 24.8816 44.8282 87° East  Level Estimated
11:47AM 24.8871 44.9449 87° East  Level Estimated
11:48AM 24.8924 45.0616 87° East  Level Estimated
11:49AM 24.8976 45.1784 87° East  Level Estimated
11:50AM 24.9028 45.2951 87° East  Level Estimated
11:51AM 24.9079 45.4119 87° East  Level Estimated
11:52AM 24.9128 45.5286 87° East  Level Estimated
11:53AM 24.9177 45.6454 87° East  Level Estimated
11:54AM 24.9225 45.7622 87° East  Level Estimated
11:55AM 24.9272 45.8790 87° East  Level Estimated
11:56AM 24.9318 45.9958 87° East  Level Estimated
11:57AM 24.9363 46.1126 88° East  Level Estimated
11:58AM 24.9408 46.2295 88° East  Level Estimated
11:59AM 24.9451 46.3463 88° East  Level Estimated
12:00PM 24.9494 46.4631 88° East  Level Estimated
12:01PM 24.9535 46.5800 88° East  Level Estimated
12:02PM 24.9576 46.6968 88° East  Level Estimated
12:03PM 24.9576 46.6988 88° East  Level Estimated
12:04PM 24.9576 46.6988 North  Level Estimated
12:05PM 24.9576 46.6988 North  Level Estimated
12:06PM 24.9576 46.6988 North  Level Estimated
12:07PM 24.9576 46.6988 North  Level Estimated
12:08PM 24.9576 46.6988 North  Level Estimated
12:09PM 24.9576 46.6988 North  Level Estimated
12:10PM 24.9576 46.6988 North  Level Estimated
12:11PM 24.9576 46.6988 North  Level Estimated